Time;durP1;ratioP1;P1;durP2;ratioP2;P2;SDS_P1;SDS_P2;PMS_P1;PMS_P2;Temp;Humidity;BMP_temperature;BMP_pressure;BME280_temperature;BME280_humidity;BME280_pressure;Samples;Min_cycle;Max_cycle;Signal;HPM_P1;HPM_P2
2020/12/06 00:01:42;;;;;;;30.35;21.33;;;;;;;3.03;77.85;97240.59;5094994;28;20043;-67
2020/12/06 00:04:09;;;;;;;30.40;21.35;;;;;;;2.98;77.67;97216.84;5094864;28;20047;-66
2020/12/06 00:06:37;;;;;;;32.80;22.10;;;;;;;2.98;78.14;97214.22;5094852;28;20676;-67
2020/12/06 00:09:06;;;;;;;29.67;21.35;;;;;;;3.02;78.29;97238.13;5094347;28;20036;-67
2020/12/06 00:11:33;;;;;;;30.90;22.08;;;;;;;3.04;77.75;97236.19;5094586;28;20056;-66
2020/12/06 00:14:00;;;;;;;30.45;21.13;;;;;;;3.00;78.06;97234.91;5094691;28;20048;-67
2020/12/06 00:16:27;;;;;;;29.55;20.63;;;;;;;3.03;78.14;97242.41;5094420;28;20071;-66
2020/12/06 00:18:55;;;;;;;28.00;20.88;;;;;;;3.09;78.24;97254.69;5094198;28;20444;-67
2020/12/06 00:21:23;;;;;;;31.73;20.95;;;;;;;3.13;77.88;97256.75;5093252;28;20394;-67
2020/12/06 00:23:50;;;;;;;27.42;20.48;;;;;;;3.22;77.89;97249.63;5094939;28;20044;-67
2020/12/06 00:26:21;;;;;;;30.45;20.23;;;;;;;3.25;77.67;97264.94;5093143;28;20063;-68
2020/12/06 00:28:48;;;;;;;28.63;20.05;;;;;;;3.27;77.52;97270.78;5094098;28;20047;-67
2020/12/06 00:31:14;;;;;;;30.90;21.60;;;;;;;3.28;77.43;97259.34;5093564;28;20105;-67
2020/12/06 00:33:42;;;;;;;31.60;22.02;;;;;;;3.21;77.04;97238.38;5095979;28;20072;-66
2020/12/06 00:36:10;;;;;;;32.13;21.50;;;;;;;3.14;77.51;97234.06;5102192;28;20565;-67
2020/12/06 00:38:38;;;;;;;31.48;21.45;;;;;;;3.21;77.74;97233.16;5100217;28;20399;-67
2020/12/06 00:41:05;;;;;;;31.15;20.77;;;;;;;3.27;77.54;97239.47;5096128;28;20052;-67
2020/12/06 00:43:32;;;;;;;28.88;20.55;;;;;;;3.32;77.54;97255.38;5094394;28;20409;-67
2020/12/06 00:45:59;;;;;;;30.30;21.48;;;;;;;3.39;77.43;97255.47;5092926;28;20040;-66
2020/12/06 00:48:25;;;;;;;33.22;22.23;;;;;;;3.38;77.02;97231.13;5092336;28;20091;-67
2020/12/06 00:50:52;;;;;;;31.98;21.25;;;;;;;3.27;76.72;97218.56;5092835;28;20139;-67
2020/12/06 00:53:21;;;;;;;33.58;22.02;;;;;;;3.17;77.11;97231.09;5092702;28;20044;-66
2020/12/06 00:55:48;;;;;;;34.83;22.10;;;;;;;3.12;77.52;97238.69;5092553;28;20097;-67
2020/12/06 00:58:16;;;;;;;33.55;21.73;;;;;;;3.14;77.49;97227.06;5092160;28;20109;-67
2020/12/06 01:00:43;;;;;;;33.50;22.73;;;;;;;3.18;77.65;97217.88;5092619;28;20048;-67
2020/12/06 01:03:09;;;;;;;32.17;21.92;;;;;;;3.22;77.48;97240.00;5093761;28;20051;-66
2020/12/06 01:05:36;;;;;;;34.88;23.65;;;;;;;3.24;77.48;97255.50;5093800;28;20036;-67
2020/12/06 01:08:03;;;;;;;35.13;22.42;;;;;;;3.24;77.47;97252.88;5091869;28;20071;-67
2020/12/06 01:10:30;;;;;;;36.03;22.10;;;;;;;3.22;77.34;97252.25;5093413;28;20494;-67
2020/12/06 01:12:59;;;;;;;37.65;23.05;;;;;;;3.22;77.65;97237.41;5093722;28;20118;-67
2020/12/06 01:15:26;;;;;;;37.50;24.35;;;;;;;3.26;77.45;97234.41;5092175;28;20052;-67
2020/12/06 01:17:53;;;;;;;32.90;21.38;;;;;;;3.30;77.68;97233.84;5093231;28;20058;-66
2020/12/06 01:20:20;;;;;;;41.22;24.80;;;;;;;3.35;77.72;97222.88;5093334;28;20050;-67
2020/12/06 01:22:46;;;;;;;50.03;29.85;;;;;;;3.38;77.37;97220.66;5093338;28;20043;-67
2020/12/06 01:25:13;;;;;;;42.92;25.02;;;;;;;3.34;77.40;97240.31;5093116;28;20040;-67
2020/12/06 01:27:41;;;;;;;44.03;27.08;;;;;;;3.28;77.30;97248.09;5092946;28;20051;-66
2020/12/06 01:30:08;;;;;;;46.22;28.05;;;;;;;3.23;77.31;97251.25;5093140;28;20047;-67
2020/12/06 01:32:35;;;;;;;49.55;29.17;;;;;;;3.26;77.86;97250.88;5091952;28;20040;-67
2020/12/06 01:35:03;;;;;;;45.95;28.73;;;;;;;3.34;77.85;97242.94;5093085;28;20055;-67
2020/12/06 01:37:30;;;;;;;54.80;32.88;;;;;;;3.38;77.68;97240.75;5091346;28;20067;-67
2020/12/06 01:39:56;;;;;;;54.05;30.98;;;;;;;3.40;77.57;97255.25;5092855;28;20040;-67
2020/12/06 01:42:23;;;;;;;49.90;30.40;;;;;;;3.41;77.51;97269.13;5092838;28;20040;-66
2020/12/06 01:44:57;;;;;;;46.55;27.80;;;;;;;3.41;77.28;97275.16;5092777;28;20486;-67
2020/12/06 01:47:24;;;;;;;43.70;25.98;;;;;;;3.36;77.20;97271.50;5092623;28;20040;-66
2020/12/06 01:49:51;;;;;;;47.25;27.58;;;;;;;3.35;77.51;97275.09;5092626;28;20500;-66
2020/12/06 01:52:17;;;;;;;41.80;25.85;;;;;;;3.36;77.57;97274.91;5092669;28;20047;-67
2020/12/06 01:54:44;;;;;;;47.00;27.35;;;;;;;3.41;77.67;97279.59;5092812;28;20055;-66
2020/12/06 01:57:11;;;;;;;42.33;26.40;;;;;;;3.44;77.70;97289.66;5092416;28;20510;-66
2020/12/06 01:59:38;;;;;;;42.50;26.33;;;;;;;3.50;77.65;97259.38;5092639;28;20489;-66
2020/12/06 02:02:05;;;;;;;42.72;24.20;;;;;;;3.40;77.03;97234.38;5092891;28;20047;-66
2020/12/06 02:04:32;;;;;;;40.80;25.40;;;;;;;3.32;77.44;97254.56;5092856;28;20513;-66
2020/12/06 02:07:00;;;;;;;41.08;25.75;;;;;;;3.34;77.56;97263.81;5092129;28;20044;-66
2020/12/06 02:09:30;;;;;;;44.42;26.42;;;;;;;3.37;77.90;97265.28;5092312;28;20039;-66
2020/12/06 02:11:58;;;;;;;43.63;25.63;;;;;;;3.42;77.56;97260.28;5091179;28;20055;-66
2020/12/06 02:14:26;;;;;;;41.25;24.77;;;;;;;3.36;77.44;97261.84;5092520;28;20490;-66
2020/12/06 02:16:53;;;;;;;45.92;26.65;;;;;;;3.39;77.84;97265.91;5092149;28;20063;-67
2020/12/06 02:19:21;;;;;;;46.20;25.55;;;;;;;3.41;77.95;97251.66;5092187;28;20044;-67
2020/12/06 02:21:49;;;;;;;43.05;25.02;;;;;;;3.47;77.88;97245.69;5092415;28;20448;-66
2020/12/06 02:24:17;;;;;;;48.60;26.92;;;;;;;3.42;77.63;97253.25;5092339;28;20040;-66
2020/12/06 02:26:46;;;;;;;43.47;25.52;;;;;;;3.42;77.66;97266.31;5092336;28;20401;-66
2020/12/06 02:29:13;;;;;;;51.65;28.13;;;;;;;3.46;77.75;97267.56;5091976;28;20040;-66
2020/12/06 02:31:41;;;;;;;46.42;26.05;;;;;;;3.49;77.59;97282.09;5092180;28;20437;-67
2020/12/06 02:34:08;;;;;;;48.17;27.08;;;;;;;3.41;77.83;97274.34;5092017;28;20044;-66
2020/12/06 02:36:35;;;;;;;44.78;26.92;;;;;;;3.39;77.65;97277.16;5092151;28;20047;-68
2020/12/06 02:39:04;;;;;;;47.97;26.15;;;;;;;3.48;78.03;97273.44;5090552;28;20044;-67
2020/12/06 02:41:35;;;;;;;43.60;25.63;;;;;;;3.52;77.60;97260.00;5092080;28;20050;-67
2020/12/06 02:44:03;;;;;;;41.10;23.95;;;;;;;3.53;77.78;97249.38;5092083;28;20040;-66
2020/12/06 02:46:30;;;;;;;41.13;24.40;;;;;;;3.58;77.73;97248.81;5091953;28;20036;-67
2020/12/06 02:48:57;;;;;;;42.13;25.38;;;;;;;3.59;77.70;97260.88;5091632;28;20047;-67
2020/12/06 02:51:24;;;;;;;37.33;23.30;;;;;;;3.65;77.65;97252.28;5091929;28;20040;-67
2020/12/06 02:53:51;;;;;;;38.15;23.30;;;;;;;3.58;77.44;97249.59;5092064;28;20050;-67
2020/12/06 02:56:18;;;;;;;39.70;23.17;;;;;;;3.53;77.54;97240.72;5092087;28;20407;-67
2020/12/06 02:58:45;;;;;;;41.13;24.20;;;;;;;3.54;77.53;97235.31;5091558;28;20379;-67
2020/12/06 03:01:12;;;;;;;39.45;23.00;;;;;;;3.50;77.78;97215.75;5091748;28;20056;-66
2020/12/06 03:03:40;;;;;;;39.10;23.30;;;;;;;3.38;78.13;97215.44;5091926;28;20040;-67
2020/12/06 03:06:07;;;;;;;38.65;24.48;;;;;;;3.59;78.26;97211.22;5090642;28;20048;-67
2020/12/06 03:08:34;;;;;;;38.65;22.70;;;;;;;3.73;78.06;97215.59;5091781;28;20230;-67
2020/12/06 03:11:01;;;;;;;34.13;21.48;;;;;;;3.82;77.73;97224.09;5091981;28;20055;-66
2020/12/06 03:13:28;;;;;;;35.58;21.38;;;;;;;3.91;77.44;97220.34;5091717;28;20048;-67
2020/12/06 03:15:55;;;;;;;39.10;21.23;;;;;;;3.80;76.91;97215.66;5090452;28;20557;-67
2020/12/06 03:18:22;;;;;;;35.78;22.58;;;;;;;3.82;77.42;97213.66;5091459;28;20040;-67
2020/12/06 03:20:48;;;;;;;37.17;24.65;;;;;;;3.86;77.78;97212.28;5095296;28;20036;-66
2020/12/06 03:23:15;;;;;;;37.97;23.75;;;;;;;3.93;77.34;97216.56;5095704;28;20048;-67
2020/12/06 03:25:41;;;;;;;37.20;21.92;;;;;;;3.92;77.36;97217.56;5095611;28;20406;-67
2020/12/06 03:28:08;;;;;;;42.53;24.20;;;;;;;3.98;77.30;97227.25;5095040;28;20713;-67
2020/12/06 03:30:36;;;;;;;38.33;22.77;;;;;;;4.01;77.05;97239.16;5095580;28;20097;-67
2020/12/06 03:33:02;;;;;;;40.67;23.80;;;;;;;4.11;76.96;97241.44;5095688;28;20067;-67
2020/12/06 03:35:29;;;;;;;36.95;22.80;;;;;;;4.13;76.97;97236.84;5095412;28;20044;-67
2020/12/06 03:37:56;;;;;;;37.90;22.38;;;;;;;4.14;77.04;97231.41;5093814;28;20413;-67
2020/12/06 03:40:22;;;;;;;35.60;21.92;;;;;;;4.13;76.94;97221.13;5095310;28;20055;-67
2020/12/06 03:42:50;;;;;;;37.20;23.27;;;;;;;4.16;77.03;97220.75;5095211;28;20043;-66
2020/12/06 03:45:17;;;;;;;35.13;22.23;;;;;;;4.22;76.82;97228.66;5095316;28;20040;-67
2020/12/06 03:47:45;;;;;;;37.05;23.17;;;;;;;4.24;76.54;97215.38;5095294;28;20114;-66
2020/12/06 03:50:12;;;;;;;37.25;22.23;;;;;;;4.19;76.48;97222.97;5093677;28;20406;-67
2020/12/06 03:52:39;;;;;;;37.72;24.10;;;;;;;4.21;76.76;97205.31;5093823;28;20044;-67
2020/12/06 03:55:06;;;;;;;34.13;22.30;;;;;;;4.13;76.76;97195.00;5095018;28;20047;-66
2020/12/06 03:57:33;;;;;;;36.75;22.58;;;;;;;4.12;76.82;97193.34;5094651;28;20040;-67
2020/12/06 04:00:00;;;;;;;38.35;22.38;;;;;;;4.08;76.97;97187.72;5094895;28;20063;-67
2020/12/06 04:02:26;;;;;;;33.47;21.90;;;;;;;4.06;76.71;97184.47;5093634;28;20052;-66
2020/12/06 04:04:54;;;;;;;34.80;21.38;;;;;;;3.99;76.90;97183.59;5094891;28;20081;-66
2020/12/06 04:07:21;;;;;;;36.50;22.38;;;;;;;4.05;76.87;97176.81;5094729;28;20040;-66
2020/12/06 04:09:47;;;;;;;41.78;23.90;;;;;;;4.12;76.83;97177.66;5094779;28;20073;-66
2020/12/06 04:12:14;;;;;;;33.08;20.45;;;;;;;4.17;76.83;97186.56;5093265;28;20052;-67
2020/12/06 04:14:41;;;;;;;34.28;22.25;;;;;;;4.18;76.65;97179.53;5094645;28;20051;-67
2020/12/06 04:17:07;;;;;;;35.88;22.33;;;;;;;4.16;76.54;97173.66;5094298;28;20039;-66
2020/12/06 04:19:34;;;;;;;36.28;22.17;;;;;;;4.14;76.69;97175.69;5094498;28;20040;-67
2020/12/06 04:22:05;;;;;;;40.72;24.65;;;;;;;4.15;76.47;97198.19;5094568;28;20044;-67
2020/12/06 04:24:33;;;;;;;33.95;22.20;;;;;;;4.12;76.61;97209.88;5094498;28;20051;-67
2020/12/06 04:26:59;;;;;;;35.22;22.20;;;;;;;4.16;76.51;97211.09;5094095;28;20040;-67
2020/12/06 04:29:26;;;;;;;36.85;22.38;;;;;;;4.19;76.34;97221.16;5094107;28;20040;-67
2020/12/06 04:31:53;;;;;;;35.17;21.42;;;;;;;4.22;76.56;97225.22;5094100;28;20137;-67
2020/12/06 04:34:20;;;;;;;35.63;22.20;;;;;;;4.14;76.25;97228.78;5094330;28;20493;-67
2020/12/06 04:36:46;;;;;;;33.75;19.90;;;;;;;4.08;76.17;97223.50;5092778;28;20501;-67
2020/12/06 04:39:14;;;;;;;34.95;20.85;;;;;;;4.04;76.47;97225.69;5094115;28;20044;-67
2020/12/06 04:41:41;;;;;;;34.13;21.08;;;;;;;4.03;76.67;97216.22;5093975;28;20040;-67
2020/12/06 04:44:08;;;;;;;33.55;21.42;;;;;;;4.04;76.88;97209.19;5094082;28;20044;-67
2020/12/06 04:46:37;;;;;;;34.83;21.60;;;;;;;4.07;76.87;97195.72;5094012;28;20051;-68
2020/12/06 04:49:27;;;;;;;36.53;21.98;;;;;;;4.04;76.86;97193.50;5093595;28;20335;-68
2020/12/06 04:51:56;;;;;;;32.42;20.55;;;;;;;4.01;76.98;97178.22;5093882;28;20040;-67
2020/12/06 04:54:32;;;;;;;31.73;19.48;;;;;;;4.03;77.05;97194.50;5094318;28;20052;-67
2020/12/06 04:57:04;;;;;;;34.45;20.45;;;;;;;4.09;76.99;97183.28;5093898;28;20132;-68
2020/12/06 04:59:30;;;;;;;30.38;18.52;;;;;;;4.06;76.54;97196.75;5093723;28;20105;-67
2020/12/06 05:02:04;;;;;;;32.03;20.20;;;;;;;4.11;76.72;97194.34;5095731;28;20059;-68
2020/12/06 05:04:34;;;;;;;32.83;20.25;;;;;;;4.11;76.60;97189.13;5098674;28;20486;-67
2020/12/06 05:07:02;;;;;;;33.40;20.67;;;;;;;4.07;76.65;97182.66;5098461;28;20512;-67
2020/12/06 05:09:34;;;;;;;36.80;21.30;;;;;;;3.93;76.77;97176.53;5093801;28;20044;-67
2020/12/06 05:12:02;;;;;;;37.67;21.25;;;;;;;3.89;76.95;97173.50;5093701;28;20047;-68
2020/12/06 05:14:29;;;;;;;34.13;20.85;;;;;;;3.87;77.01;97175.47;5092118;28;20044;-67
2020/12/06 05:16:57;;;;;;;31.35;20.10;;;;;;;3.93;77.36;97173.94;5093209;28;20044;-68
2020/12/06 05:19:28;;;;;;;31.70;20.25;;;;;;;4.01;77.03;97171.16;5093313;28;20509;-67
2020/12/06 05:21:56;;;;;;;32.53;19.88;;;;;;;4.04;77.03;97173.41;5093417;28;20383;-67
2020/12/06 05:24:22;;;;;;;31.33;19.25;;;;;;;4.01;76.85;97172.97;5093332;28;20059;-68
2020/12/06 05:26:50;;;;;;;33.22;20.52;;;;;;;3.97;76.73;97168.13;5093039;28;20044;-67
2020/12/06 05:29:17;;;;;;;35.28;21.23;;;;;;;3.95;76.95;97161.47;5093113;28;20044;-69
2020/12/06 05:31:44;;;;;;;31.45;19.52;;;;;;;3.96;77.10;97176.16;5093517;28;20047;-68
2020/12/06 05:34:11;;;;;;;33.13;19.90;;;;;;;3.95;77.04;97192.81;5093629;28;20044;-68
2020/12/06 05:36:42;;;;;;;32.67;20.48;;;;;;;3.96;76.93;97200.50;5093180;28;20048;-68
2020/12/06 05:39:09;;;;;;;36.92;21.00;;;;;;;3.95;77.06;97187.59;5092759;28;20044;-67
2020/12/06 05:41:35;;;;;;;34.83;20.83;;;;;;;3.92;76.99;97177.53;5092105;28;20056;-69
2020/12/06 05:44:04;;;;;;;34.20;20.42;;;;;;;3.94;77.23;97158.03;5093180;28;20036;-68
2020/12/06 05:46:32;;;;;;;35.28;21.02;;;;;;;3.94;77.33;97155.41;5091647;28;20036;-68
2020/12/06 05:49:00;;;;;;;35.75;20.13;;;;;;;4.01;77.31;97139.78;5092552;28;20368;-68
2020/12/06 05:51:27;;;;;;;31.58;19.35;;;;;;;4.03;77.39;97142.19;5092861;28;20044;-68
2020/12/06 05:53:56;;;;;;;32.20;20.20;;;;;;;4.08;77.01;97147.66;5092713;28;20391;-68
2020/12/06 05:56:23;;;;;;;31.40;19.00;;;;;;;4.09;76.94;97149.28;5092757;28;20093;-68
2020/12/06 05:58:51;;;;;;;31.25;19.23;;;;;;;4.14;76.93;97162.59;5092304;28;20413;-68
2020/12/06 06:01:20;;;;;;;36.47;21.67;;;;;;;4.18;76.97;97167.25;5092597;28;20052;-68
2020/12/06 06:03:49;;;;;;;32.92;20.58;;;;;;;4.13;76.46;97158.38;5092694;28;20044;-68
2020/12/06 06:06:25;;;;;;;33.42;20.45;;;;;;;4.12;76.71;97141.03;5092780;28;20048;-68
2020/12/06 06:08:53;;;;;;;32.35;20.58;;;;;;;4.09;76.50;97142.25;5091372;28;20043;-68
2020/12/06 06:11:26;;;;;;;32.70;21.05;;;;;;;4.16;76.58;97132.66;5093603;28;20048;-68
2020/12/06 06:13:56;;;;;;;33.92;21.35;;;;;;;4.13;76.55;97121.75;5092047;28;20055;-68
2020/12/06 06:16:26;;;;;;;32.80;19.55;;;;;;;4.07;76.44;97114.66;5091901;28;20059;-68
2020/12/06 06:18:54;;;;;;;34.20;19.73;;;;;;;4.01;76.69;97111.03;5092311;28;20059;-67
2020/12/06 06:21:26;;;;;;;32.65;20.80;;;;;;;4.06;76.79;97118.28;5092902;28;20044;-68
2020/12/06 06:23:54;;;;;;;34.20;20.38;;;;;;;4.16;76.88;97131.81;5092524;28;20123;-68
2020/12/06 06:26:26;;;;;;;33.28;20.45;;;;;;;4.21;76.64;97138.09;5092435;28;20486;-68
2020/12/06 06:28:53;;;;;;;32.05;20.05;;;;;;;4.20;76.33;97146.97;5092187;28;20048;-68
2020/12/06 06:31:21;;;;;;;26.77;17.75;;;;;;;4.20;76.55;97144.34;5092330;28;20055;-68
2020/12/06 06:33:50;;;;;;;31.45;19.23;;;;;;;4.20;76.38;97159.19;5092192;28;20040;-68
2020/12/06 06:36:21;;;;;;;35.97;20.70;;;;;;;4.16;76.41;97158.81;5092092;28;20044;-69
2020/12/06 06:38:49;;;;;;;33.15;20.52;;;;;;;4.18;76.28;97164.63;5090468;28;20048;-68
2020/12/06 06:41:16;;;;;;;29.83;18.02;;;;;;;4.12;76.17;97167.19;5090695;28;20528;-68
2020/12/06 06:43:44;;;;;;;33.25;20.55;;;;;;;4.17;76.34;97177.91;5092133;28;20066;-68
2020/12/06 06:46:15;;;;;;;32.00;20.20;;;;;;;4.18;76.34;97185.56;5090728;28;20048;-69
2020/12/06 06:48:45;;;;;;;31.02;19.08;;;;;;;4.22;76.38;97181.56;5091713;28;20040;-68
2020/12/06 06:51:20;;;;;;;30.88;19.55;;;;;;;4.29;76.23;97176.38;5092027;28;20047;-67
2020/12/06 06:53:47;;;;;;;29.58;19.27;;;;;;;4.30;76.22;97158.88;5094460;28;20055;-68
2020/12/06 06:56:18;;;;;;;31.85;18.52;;;;;;;4.25;76.28;97153.41;5096273;28;20115;-68
2020/12/06 06:58:47;;;;;;;33.47;19.85;;;;;;;4.23;76.17;97141.31;5094521;28;20071;-69
2020/12/06 07:01:17;;;;;;;31.95;20.17;;;;;;;4.19;76.36;97153.16;5096269;28;20055;-68
2020/12/06 07:03:45;;;;;;;31.10;19.73;;;;;;;4.13;76.49;97164.41;5096427;28;20051;-68
2020/12/06 07:06:32;;;;;;;35.63;22.05;;;;;;;4.17;76.64;97170.88;5096163;28;20055;-67
2020/12/06 07:08:59;;;;;;;38.58;22.70;;;;;;;4.21;76.65;97169.50;5095477;28;20563;-68
2020/12/06 07:11:27;;;;;;;37.38;22.70;;;;;;;4.19;76.30;97168.06;5096170;28;20075;-68
2020/12/06 07:13:54;;;;;;;33.88;21.33;;;;;;;4.09;76.35;97175.44;5095936;28;20123;-67
2020/12/06 07:16:21;;;;;;;34.22;20.40;;;;;;;4.08;76.75;97182.50;5096096;28;20068;-68
2020/12/06 07:18:50;;;;;;;34.00;21.38;;;;;;;4.19;76.97;97196.81;5095620;28;20044;-68
2020/12/06 07:21:17;;;;;;;31.48;19.65;;;;;;;4.22;76.65;97193.84;5094522;28;20052;-68
2020/12/06 07:23:47;;;;;;;29.67;19.20;;;;;;;4.23;76.45;97192.81;5094342;28;20043;-67
2020/12/06 07:26:17;;;;;;;32.92;19.45;;;;;;;4.22;76.44;97184.19;5095670;28;20044;-68
2020/12/06 07:28:44;;;;;;;35.35;19.65;;;;;;;4.21;76.46;97187.00;5095381;28;20032;-67
2020/12/06 07:31:12;;;;;;;33.38;19.63;;;;;;;4.20;76.40;97175.72;5095709;28;20036;-68
2020/12/06 07:33:39;;;;;;;30.80;19.70;;;;;;;4.12;76.48;97183.72;5095606;28;20122;-67
2020/12/06 07:36:06;;;;;;;29.17;18.85;;;;;;;4.12;76.54;97181.09;5095327;28;20159;-68
2020/12/06 07:38:35;;;;;;;31.73;19.90;;;;;;;4.06;76.79;97184.47;5095201;28;20477;-68
2020/12/06 07:41:05;;;;;;;33.22;20.25;;;;;;;4.04;77.07;97189.09;5095951;28;20063;-68
2020/12/06 07:43:33;;;;;;;31.58;18.80;;;;;;;4.00;76.80;97185.25;5096675;28;20495;-69
2020/12/06 07:46:12;;;;;;;38.08;23.15;;;;;;;4.04;77.00;97175.19;5094200;28;20193;-67
2020/12/06 07:48:41;;;;;;;35.72;20.35;;;;;;;4.07;77.06;97183.47;5093608;28;20105;-68
2020/12/06 07:51:08;;;;;;;32.65;20.02;;;;;;;4.04;76.92;97177.81;5095029;28;20040;-68
2020/12/06 07:53:47;;;;;;;31.30;20.05;;;;;;;4.07;77.05;97180.84;5093781;28;20052;-68
2020/12/06 07:56:18;;;;;;;33.17;18.83;;;;;;;4.09;76.92;97170.22;5095225;28;20461;-68
2020/12/06 07:58:57;;;;;;;31.63;20.38;;;;;;;4.12;76.97;97183.72;5094942;28;20051;-68
2020/12/06 08:01:26;;;;;;;32.17;19.63;;;;;;;4.18;76.94;97193.41;5093868;28;20066;-68
2020/12/06 08:03:55;;;;;;;30.08;18.85;;;;;;;4.21;76.79;97200.06;5093754;28;20054;-69
2020/12/06 08:06:27;;;;;;;29.33;19.02;;;;;;;4.27;76.95;97198.50;5094216;28;20044;-68
2020/12/06 08:08:57;;;;;;;29.17;17.35;;;;;;;4.33;76.73;97206.38;5094814;28;20059;-68
2020/12/06 08:11:29;;;;;;;30.88;19.75;;;;;;;4.34;76.56;97210.63;5094988;28;20115;-68
2020/12/06 08:13:58;;;;;;;28.17;17.63;;;;;;;4.30;76.51;97209.38;5095054;28;20135;-68
2020/12/06 08:16:25;;;;;;;27.90;16.70;;;;;;;4.32;76.51;97204.75;5095113;28;20506;-67
2020/12/06 08:19:02;;;;;;;29.63;17.70;;;;;;;4.41;76.61;97200.19;5094837;28;20044;-67
2020/12/06 08:21:42;;;;;;;28.20;17.15;;;;;;;4.44;76.47;97195.38;5093440;28;20452;-68
2020/12/06 08:24:20;;;;;;;25.70;16.35;;;;;;;4.48;76.43;97187.94;5094548;28;20071;-67
2020/12/06 08:26:47;;;;;;;22.10;14.55;;;;;;;4.48;76.10;97183.50;5094291;28;20105;-69
2020/12/06 08:29:16;;;;;;;21.77;13.57;;;;;;;4.51;75.88;97181.53;5094069;28;20077;-67
2020/12/06 08:31:43;;;;;;;26.58;16.45;;;;;;;4.51;75.66;97186.75;5093403;28;20410;-67
2020/12/06 08:34:10;;;;;;;27.52;17.05;;;;;;;4.48;76.07;97193.16;5094346;28;20044;-67
2020/12/06 08:36:37;;;;;;;22.00;14.75;;;;;;;4.54;76.33;97204.69;5092750;28;20044;-67
2020/12/06 08:39:15;;;;;;;26.35;16.13;;;;;;;4.59;76.35;97207.53;5093854;28;20047;-67
2020/12/06 08:41:42;;;;;;;22.55;14.55;;;;;;;4.64;76.00;97213.78;5093950;28;20040;-68
2020/12/06 08:44:10;;;;;;;24.42;15.40;;;;;;;4.60;75.93;97207.34;5094123;28;20097;-69
2020/12/06 08:46:37;;;;;;;25.05;16.15;;;;;;;4.65;75.72;97214.59;5092755;28;20537;-68
2020/12/06 08:49:17;;;;;;;21.95;15.20;;;;;;;4.65;75.52;97210.19;5093884;28;20044;-69
2020/12/06 08:52:38;;;;;;;21.95;14.68;;;;;;;4.59;75.95;97210.16;5094029;28;20044;-66
2020/12/06 08:55:46;;;;;;;24.15;15.45;;;;;;;4.64;76.19;97198.09;5094255;28;20513;-68
2020/12/06 08:58:27;;;;;;;23.10;14.98;;;;;;;4.74;76.09;97205.59;5093970;28;20050;-68
2020/12/06 09:01:21;;;;;;;25.73;16.52;;;;;;;4.68;76.11;97211.59;5094126;28;20040;-68
2020/12/06 09:04:20;;;;;;;25.80;17.17;;;;;;;4.68;76.00;97215.03;5094068;28;20055;-68
2020/12/06 09:07:02;;;;;;;29.83;18.00;;;;;;;4.67;76.05;97225.69;5092724;28;20055;-68
2020/12/06 09:09:33;;;;;;;26.35;17.40;;;;;;;4.64;76.04;97232.13;5093648;28;20048;-67
2020/12/06 09:12:11;;;;;;;27.42;17.20;;;;;;;4.64;75.99;97226.88;5094187;28;20044;-68
2020/12/06 09:14:44;;;;;;;28.92;18.00;;;;;;;4.66;76.04;97229.31;5093734;28;20040;-67
2020/12/06 09:17:11;;;;;;;28.58;17.75;;;;;;;4.64;76.03;97226.88;5092184;28;20052;-67
2020/12/06 09:19:54;;;;;;;28.00;17.65;;;;;;;4.66;76.43;97216.25;5093340;28;20032;-68
2020/12/06 09:22:26;;;;;;;28.73;18.02;;;;;;;4.70;76.35;97230.56;5093423;28;20047;-69
2020/12/06 09:24:54;;;;;;;26.23;16.23;;;;;;;4.69;75.94;97210.59;5093339;28;20070;-67
2020/12/06 09:27:27;;;;;;;27.52;17.85;;;;;;;4.74;76.34;97194.31;5093415;28;20039;-67
2020/12/06 09:30:03;;;;;;;27.17;15.70;;;;;;;4.81;76.36;97187.28;5093356;28;20545;-68
2020/12/06 09:32:43;;;;;;;24.80;16.15;;;;;;;4.89;76.23;97190.53;5093385;28;20036;-68
2020/12/06 09:35:15;;;;;;;22.55;14.98;;;;;;;4.72;75.75;97179.59;5093143;28;20051;-67
2020/12/06 09:37:43;;;;;;;22.52;15.23;;;;;;;4.68;76.16;97190.66;5093468;28;20520;-67
2020/12/06 09:40:13;;;;;;;21.48;14.90;;;;;;;4.68;76.26;97203.75;5093226;28;20054;-68
2020/12/06 09:42:41;;;;;;;24.15;16.50;;;;;;;4.70;76.25;97201.75;5091664;28;20486;-67
2020/12/06 09:45:11;;;;;;;24.17;16.30;;;;;;;4.65;75.95;97198.91;5092981;28;20131;-67
2020/12/06 09:47:41;;;;;;;23.02;15.20;;;;;;;4.70;76.04;97199.16;5093055;28;20067;-67
2020/12/06 09:50:18;;;;;;;22.52;14.52;;;;;;;4.79;75.82;97221.53;5091464;28;20438;-67
2020/12/06 09:52:46;;;;;;;24.13;15.13;;;;;;;4.83;75.55;97221.94;5093090;28;20554;-67
2020/12/06 09:55:23;;;;;;;20.17;13.73;;;;;;;4.89;75.61;97208.88;5092980;28;20063;-66
2020/12/06 09:57:54;;;;;;;24.52;15.63;;;;;;;4.93;75.65;97220.56;5093322;28;20040;-67
2020/12/06 10:00:21;;;;;;;18.35;12.93;;;;;;;4.98;75.37;97217.41;5091554;28;20413;-67
2020/12/06 10:03:04;;;;;;;20.73;14.23;;;;;;;5.02;75.25;97204.69;5093207;28;20093;-68
2020/12/06 10:05:32;;;;;;;18.67;13.25;;;;;;;4.99;75.01;97205.09;5093104;28;20416;-67
2020/12/06 10:08:00;;;;;;;21.10;13.77;;;;;;;5.06;75.05;97208.53;5091482;28;20414;-66
2020/12/06 10:10:27;;;;;;;20.60;14.00;;;;;;;5.08;74.93;97207.34;5092659;28;20097;-66
2020/12/06 10:12:54;;;;;;;21.13;13.13;;;;;;;5.07;74.94;97207.56;5092750;28;20046;-67
2020/12/06 10:15:20;;;;;;;20.20;13.63;;;;;;;5.07;74.95;97208.34;5092493;28;20047;-67
2020/12/06 10:17:47;;;;;;;23.48;15.57;;;;;;;5.08;74.92;97211.78;5090785;28;20490;-67
2020/12/06 10:20:15;;;;;;;22.05;14.88;;;;;;;5.09;75.08;97214.19;5092541;28;20036;-66
2020/12/06 10:22:42;;;;;;;23.38;14.98;;;;;;;5.13;75.15;97217.22;5092476;28;20126;-68
2020/12/06 10:25:10;;;;;;;25.70;16.77;;;;;;;5.11;75.10;97216.63;5091232;28;20044;-67
2020/12/06 10:27:40;;;;;;;28.13;17.30;;;;;;;4.97;75.31;97221.78;5092330;28;20127;-68
2020/12/06 10:30:07;;;;;;;26.10;16.25;;;;;;;4.93;75.43;97225.81;5093163;28;20127;-68
2020/12/06 10:32:34;;;;;;;25.33;16.15;;;;;;;4.80;75.48;97212.66;5092182;28;20386;-68
2020/12/06 10:35:01;;;;;;;23.48;15.65;;;;;;;4.77;75.56;97213.03;5092245;28;20040;-69
2020/12/06 10:37:28;;;;;;;22.45;15.52;;;;;;;4.65;75.99;97197.13;5091989;28;20122;-68
2020/12/06 10:39:57;;;;;;;22.80;14.82;;;;;;;4.64;76.19;97199.91;5091959;28;20047;-69
2020/12/06 10:42:23;;;;;;;23.77;15.60;;;;;;;4.77;76.11;97183.44;5090928;28;20391;-69
2020/12/06 10:44:50;;;;;;;46.58;27.95;;;;;;;4.78;76.26;97183.28;5092051;28;20044;-66
2020/12/06 10:47:18;;;;;;;37.33;24.13;;;;;;;4.81;76.45;97180.25;5091617;28;20044;-69
2020/12/06 10:49:46;;;;;;;28.00;17.23;;;;;;;4.87;76.24;97182.09;5091743;28;20040;-66
2020/12/06 10:52:13;;;;;;;26.27;16.38;;;;;;;4.92;76.24;97184.13;5090519;28;20052;-66
2020/12/06 10:54:40;;;;;;;25.88;17.98;;;;;;;4.94;76.27;97185.56;5091892;28;20048;-66
2020/12/06 10:57:07;;;;;;;30.92;18.17;;;;;;;4.85;76.38;97188.50;5091526;28;20055;-67
2020/12/06 10:59:35;;;;;;;30.13;19.70;;;;;;;4.90;76.33;97184.31;5091723;28;20055;-68
2020/12/06 11:02:02;;;;;;;28.15;17.92;;;;;;;5.04;76.45;97177.31;5091808;28;20071;-68
2020/12/06 11:04:29;;;;;;;29.00;18.05;;;;;;;5.13;76.21;97183.97;5091771;28;20048;-67
2020/12/06 11:07:00;;;;;;;30.45;17.98;;;;;;;5.04;75.92;97184.38;5090273;28;20071;-67
2020/12/06 11:09:27;;;;;;;26.90;17.25;;;;;;;5.00;76.24;97189.19;5091790;28;20458;-67
2020/12/06 11:11:54;;;;;;;33.38;19.35;;;;;;;4.97;76.11;97179.91;5091764;28;20692;-67
2020/12/06 11:14:22;;;;;;;34.35;20.35;;;;;;;4.99;76.37;97179.72;5091846;28;20497;-67
2020/12/06 11:16:50;;;;;;;32.33;19.13;;;;;;;5.01;76.41;97179.50;5091443;28;20405;-68
2020/12/06 11:19:17;;;;;;;31.25;19.50;;;;;;;4.97;76.38;97185.13;5091593;28;20044;-68
2020/12/06 11:21:44;;;;;;;28.38;17.73;;;;;;;4.99;76.81;97179.72;5091695;28;20516;-68
2020/12/06 11:24:11;;;;;;;36.15;21.67;;;;;;;5.06;76.77;97191.03;5091655;28;20040;-67
2020/12/06 11:26:38;;;;;;;37.33;21.95;;;;;;;5.15;76.47;97189.03;5091588;28;20134;-67
2020/12/06 11:29:05;;;;;;;31.88;18.25;;;;;;;5.07;76.38;97199.69;5089873;28;20051;-68
2020/12/06 11:31:32;;;;;;;25.52;17.20;;;;;;;5.07;76.42;97204.94;5091378;28;20060;-67
2020/12/06 11:33:59;;;;;;;26.27;16.95;;;;;;;5.15;76.63;97200.31;5090335;28;20070;-67